Flight Track Log - Related Links

Times and Time Zones

All times are in EDT time to prevent confusion due to time zone crossing. See the FFT143 flight status page for this flight to view local times or setup timezone preferences in your user account.

Time Position Orientation Groundspeed Altitude Reporting Facility
EDT Latitude Longitude Course Direction KTS MPH feet Rate Location/Type
07:24AM 29.9589 -95.3342 21° North 230 265 1,000  Level Houston Center
07:25AM 29.9892 -95.3208 21° North 194 223 1,800 1,661 Climbing Houston Center
07:26AM 30.0631 -95.3508 341° North 268 308 4,100 2,473 Climbing Houston Center
07:27AM 30.1322 -95.3942 332° Northwest 280 322 7,200 2,852 Climbing Houston Center
07:28AM 30.2028 -95.4400 331° Northwest 287 330 9,900 2,115 Climbing Houston Center
07:29AM 30.2797 -95.4892 331° Northwest 311 358 11,500 2,213 Climbing Houston Center
07:30AM 30.3844 -95.5558 331° Northwest 354 407 14,400 2,380 Climbing Houston Center
07:31AM 30.4742 -95.6119 332° Northwest 366 421 16,300 1,884 Climbing Houston Center
07:32AM 30.5686 -95.6694 332° Northwest 384 442 18,200 1,805 Climbing Houston Center
07:33AM 30.6675 -95.7225 335° Northwest 393 452 20,000 1,805 Climbing Houston Center
07:34AM 30.7750 -95.7806 335° Northwest 400 460 21,900 1,672 Climbing Houston Center
07:35AM 30.8781 -95.8356 335° Northwest 406 467 23,400 2,607 Climbing Houston Center
07:36AM 30.9767 -95.8878 336° Northwest 381 438 27,200 2,754 Climbing Houston Center
07:37AM 31.0644 -95.9358 335° Northwest 348 400 29,000 1,180 Climbing Houston Center
07:38AM 31.1575 -95.9817 337° Northwest 359 413 29,600 541 Climbing Houston Center
07:39AM 31.2628 -96.0203 343° North 391 450 30,100 492 Climbing Houston Center
07:40AM 31.3739 -96.0644 341° North 414 476 30,600 590 Climbing Houston Center
07:41AM 31.4886 -96.1081 342° North 436 502 31,300 1,082 Climbing Houston Center
07:42AM 31.6081 -96.1544 342° North 439 505 32,800 1,328 Climbing Houston Center
07:43AM 31.7217 -96.1981 342° North 435 501 34,000 1,122 Climbing Houston Center
07:44AM 31.8567 -96.2522 341° North 435 501 35,100 927 Climbing Houston Center
07:45AM 31.9728 -96.2981 341° North 437 503 35,900 443 Climbing Houston Center
07:46AM 32.0878 -96.3428 342° North 433 498 36,000 49 Climbing Houston Center
07:47AM 32.1958 -96.4033 335° Northwest 432 497 36,000  Level Houston Center
07:48AM 32.2917 -96.4911 322° Northwest 434 499 36,000  Level Houston Center
07:50AM 32.4092 -96.6064 320° Northwest 439 505 36,000  Level Fort Worth Center
07:51AM 32.5078 -96.6989 322° Northwest 449 517 36,000  Level Fort Worth Center
07:52AM 32.6083 -96.7919 322° Northwest 454 522 36,000  Level Fort Worth Center
07:53AM 32.7092 -96.8850 322° Northwest 454 522 36,000  Level Fort Worth Center
07:54AM 32.8075 -96.9783 321° Northwest 454 522 36,000  Level Fort Worth Center
07:55AM 32.8956 -97.0647 321° Northwest 454 522 36,000  Level Fort Worth Center
07:56AM 33.0022 -97.1633 322° Northwest 454 522 36,000 -50 Level Fort Worth Center
07:57AM 33.1006 -97.2522 323° Northwest 468 539 35,900 -50 Descending Fort Worth Center
07:58AM 33.1925 -97.3439 320° Northwest 463 533 35,900  Level Fort Worth Center
07:59AM 33.2906 -97.4383 321° Northwest 452 520 35,900 50 Level Fort Worth Center
08:00AM 33.3886 -97.5328 321° Northwest 452 520 36,000 50 Climbing Fort Worth Center
08:01AM 33.4906 -97.6300 322° Northwest 457 526 36,000  Level Fort Worth Center
08:02AM 33.5886 -97.7253 321° Northwest 457 526 36,000  Level Fort Worth Center
08:03AM 33.6864 -97.8203 321° Northwest 457 526 36,000 -50 Level Fort Worth Center
08:04AM 33.7842 -97.9158 321° Northwest 457 526 35,900  Descending Fort Worth Center
08:05AM 33.8839 -98.0139 321° Northwest 457 526 36,000 50 Climbing Fort Worth Center
08:06AM 33.9814 -98.1097 321° Northwest 457 526 36,000 -50 Level Fort Worth Center
08:07AM 34.0811 -98.2058 321° Northwest 452 520 35,900 -50 Descending Fort Worth Center
08:08AM 34.1700 -98.3047 317° Northwest 447 514 35,900 600 Level Fort Worth Center
08:09AM 34.2694 -98.4011 321° Northwest 447 514 37,100 1,000 Climbing Fort Worth Center
08:10AM 34.3647 -98.4928 322° Northwest 447 514 37,900 450 Climbing Fort Worth Center
08:11AM 34.4578 -98.5872 320° Northwest 447 514 38,000 50 Climbing Fort Worth Center
08:12AM 34.5528 -98.6792 321° Northwest 447 514 38,000  Level Fort Worth Center
08:13AM 34.6561 -98.7792 321° Northwest 442 509 38,000  Level Fort Worth Center
08:14AM 34.7531 -98.8717 322° Northwest 442 509 38,000 -50 Level Fort Worth Center
08:15AM 34.8439 -98.9644 320° Northwest 442 509 37,900 -50 Descending Fort Worth Center
08:16AM 34.9406 -99.0625 320° Northwest 442 509 37,900 38 Level Fort Worth Center
08:17AM 35.0881 -99.2144 320° Northwest 443 510 38,000 37 Climbing Kansas City Center
08:18AM 35.1856 -99.3128 321° Northwest 449 517 38,000  Level Kansas City Center
08:19AM 35.2808 -99.4094 320° Northwest 446 513 38,000  Level Kansas City Center
08:20AM 35.3769 -99.5083 320° Northwest 446 513 38,000  Level Kansas City Center
08:21AM 35.4733 -99.6064 320° Northwest 447 514 38,000  Level Kansas City Center
08:22AM 35.5692 -99.7042 320° Northwest 446 513 38,000 -49 Level Kansas City Center
08:23AM 35.6622 -99.8011 320° Northwest 437 503 37,900  Descending Kansas City Center
08:24AM 35.7569 -99.8989 320° Northwest 438 504 38,000 49 Climbing Kansas City Center
08:25AM 35.8700 -100.0175 320° Northwest 441 507 38,000  Level Kansas City Center
08:26AM 35.9639 -100.1158 320° Northwest 439 505 38,000 -48 Level Kansas City Center
08:28AM 36.0597 -100.2153 320° Northwest 443 510 37,900  Descending Kansas City Center
08:29AM 36.1536 -100.3133 320° Northwest 442 509 38,000 49 Climbing Kansas City Center
08:30AM 36.2506 -100.4142 320° Northwest 448 516 38,000 -49 Level Kansas City Center
08:31AM 36.3444 -100.5133 320° Northwest 446 513 37,900 -49 Descending Kansas City Center
08:32AM 36.4394 -100.6147 319° Northwest 446 513 37,900 49 Level Kansas City Center
08:33AM 36.5333 -100.7139 320° Northwest 451 519 38,000 49 Climbing Kansas City Center
08:34AM 36.6400 -100.8297 319° Northwest 454 522 38,000  Level Kansas City Center
08:35AM 36.7322 -100.9267 320° Northwest 453 521 38,000  Level Kansas City Center
08:36AM 36.8383 -101.0411 319° Northwest 451 519 38,000  Level Kansas City Center
08:37AM 36.9289 -101.1392 319° Northwest 449 517 38,000  Level Kansas City Center
08:38AM 37.0197 -101.2386 319° Northwest 451 519 38,000 -49 Level Kansas City Center
08:39AM 37.1253 -101.3531 319° Northwest 448 516 37,900 -49 Descending Kansas City Center
08:40AM 37.2158 -101.4525 319° Northwest 450 518 37,900 49 Level Kansas City Center
08:41AM 37.3061 -101.5517 319° Northwest 449 517 38,000 49 Climbing Kansas City Center
08:42AM 37.4114 -101.6686 319° Northwest 449 517 38,000  Level Kansas City Center
08:43AM 37.5031 -101.7683 319° Northwest 452 520 38,000  Level Kansas City Center
08:44AM 37.6072 -101.8847 319° Northwest 448 516 38,000  Level Kansas City Center
08:45AM 37.6700 -101.9508 320° Northwest 451 519 38,000  Level Denver Center
08:46AM 37.7583 -102.0522 318° Northwest 449 517 38,000 -98 Level Denver Center
08:47AM 37.8481 -102.1533 318° Northwest 451 519 37,800 -344 Descending Denver Center
08:48AM 37.9408 -102.2819 312° West 444 511 37,300 -492 Descending Denver Center
08:49AM 38.0228 -102.3919 313° West 447 514 36,800 -541 Descending Denver Center
08:50AM 38.1175 -102.5228 313° West 451 519 36,200 -492 Descending Denver Center
08:51AM 38.2000 -102.6344 313° West 452 520 35,800 -443 Descending Denver Center
08:52AM 38.2831 -102.7503 312° West 461 531 35,300 -492 Descending Denver Center
08:53AM 38.3808 -102.8839 313° West 463 533 34,800 -492 Descending Denver Center
08:54AM 38.4647 -102.9989 313° West 462 532 34,300 -393 Descending Denver Center
08:55AM 38.5481 -103.1169 312° West 466 536 34,000 -148 Descending Denver Center
08:56AM 38.6381 -103.2400 313° West 462 532 34,000 -934 Level Denver Center
08:57AM 38.7244 -103.3611 312° West 460 529 32,100 -2,951 Descending Denver Center
08:58AM 38.8203 -103.4961 312° West 467 537 28,000 -3,366 Descending Denver Center
08:59AM 38.9006 -103.6106 312° West 475 547 25,200 -2,976 Descending Denver Center
09:00AM 39.0025 -103.7553 312° West 459 528 21,900 -2,902 Descending Denver Center
09:01AM 39.0853 -103.8744 312° West 450 518 19,300 -1,869 Descending Denver Center
09:02AM 39.1622 -103.9844 312° West 411 473 18,100 -1,082 Descending Denver Center
09:03AM 39.2372 -104.0911 312° West 402 463 17,100 -1,033 Descending Denver Center
09:04AM 39.3425 -104.1608 333° Northwest 447 514 16,000 -1,131 Descending Denver Center
09:05AM 39.4611 -104.1758 354° North 435 501 14,800 -984 Descending Denver Center
09:06AM 39.5836 -104.1700 North 407 468 14,000 -1,180 Descending Denver Center
09:07AM 39.6675 -104.1706 360° North 398 458 12,400 -1,918 Descending Denver Center
09:08AM 39.7719 -104.2508 329° Northwest 356 410 10,100 -1,328 Descending Denver Center
09:09AM 39.8125 -104.3497 298° West 310 357 9,700 -1,131 Descending Denver Center
09:10AM 39.8522 -104.4478 298° West 288 331 7,800 -1,230 Descending Denver Center
09:11AM 39.8819 -104.5172 299° West 210 242 7,200 -885 Descending Denver Center
09:12AM 39.8769 -104.5717 263° West 155 178 6,000 -934 Descending Denver Center
09:13AM 39.8769 -104.6211 270° West 139 160 5,300 -689 Descending Denver Center
09:15AM 39.8500 -104.6667 199° South  Level FlightAware Approximate
09:22AM 39.8617 -104.6732 199° South  Level Estimated
09:23AM 39.8617 -104.6732 199° South  Level Estimated

Login

Don't have an account? Register now (free) for customized features, flight alerts, and more!